Time;durP1;ratioP1;P1;durP2;ratioP2;P2;SDS_P1;SDS_P2;PMS_P1;PMS_P2;Temp;Humidity;BMP_temperature;BMP_pressure;BME280_temperature;BME280_humidity;BME280_pressure;Samples;Min_cycle;Max_cycle;Signal;HPM_P1;HPM_P2
2023/09/12 07:41:47;;;;;;;;;;;;;;;8.86;100.00;99243.78;5099697;27;20371;-84
2023/09/12 07:44:15;;;;;;;;;;;;;;;8.72;100.00;99235.63;5085701;28;19966;-85
2023/09/12 07:46:40;;;;;;;;;;;;;;;8.84;100.00;99237.72;5121553;28;20290;-85
2023/09/12 07:49:05;;;;;;;;;;;;;;;8.82;100.00;99239.59;5122404;28;19942;-85
2023/09/12 07:51:30;;;;;;;;;;;;;;;8.85;100.00;99236.78;5121893;28;19924;-86
2023/09/12 07:53:56;;;;;;;;;;;;;;;8.79;100.00;99236.19;5078091;28;19929;-84
2023/09/12 07:56:21;;;;;;;;;;;;;;;8.85;100.00;99236.78;5083978;28;19920;-83
2023/09/12 07:58:47;;;;;;;;;;;;;;;8.86;100.00;99237.66;5083001;28;19924;-82
2023/09/12 08:01:12;;;;;;;;;;;;;;;10.09;100.00;99238.97;5083185;28;19925;-82
2023/09/12 08:03:39;;;;;;;;;;;;;;;16.33;100.00;99234.06;5077295;28;19928;-85
2023/09/12 08:06:04;;;;;;;;;;;;;;;12.30;100.00;99249.25;5082746;28;20374;-83
2023/09/12 08:08:30;;;;;;;;;;;;;;;11.42;100.00;99260.34;5114119;28;19924;-86
2023/09/12 08:10:56;;;;;;;;;;;;;;;10.59;100.00;99267.34;5080885;28;20019;-84
2023/09/12 08:13:22;;;;;;;;;;;;;;;10.89;100.00;99272.84;5080985;28;19973;-86
2023/09/12 08:15:47;;;;;;;;;;;;;;;11.12;100.00;99272.59;5079378;28;19928;-86
2023/09/12 08:18:12;;;;;;;;;;;;;;;10.68;100.00;99272.19;5085076;28;19971;-82
2023/09/12 08:20:37;;;;;;;;;;;;;;;10.59;100.00;99269.16;5074858;28;19951;-85
2023/09/12 08:23:03;;;;;;;;;;;;;;;10.89;100.00;99274.66;5076443;28;19931;-82
2023/09/12 08:25:28;;;;;;;;;;;;;;;10.85;100.00;99273.97;5084428;28;19929;-84
2023/09/12 08:27:53;;;;;;;;;;;;;;;19.34;100.00;99287.53;5118037;28;19969;-84
2023/09/12 08:30:18;;;;;;;;;;;;;;;20.54;100.00;99286.72;5081520;28;19929;-87
2023/09/12 08:32:44;;;;;;;;;;;;;;;16.11;100.00;99259.69;5083912;28;19927;-84
2023/09/12 08:35:12;;;;;;;;;;;;;;;12.84;100.00;99264.66;5080473;28;19921;-93
2023/09/12 08:37:37;;;;;;;;;;;;;;;12.37;100.00;99277.19;5115706;27;19920;-85
2023/09/12 08:40:07;;;;;;;;;;;;;;;11.98;100.00;99275.84;5077386;28;20290;-82
2023/09/12 08:42:33;;;;;;;;;;;;;;;11.36;100.00;99283.66;5077659;28;19967;-84
2023/09/12 08:44:58;;;;;;;;;;;;;;;11.59;100.00;99279.78;5083187;28;19920;-81
2023/09/12 08:47:24;;;;;;;;;;;;;;;11.63;100.00;99263.59;5084274;28;19952;-82
2023/09/12 08:49:51;;;;;;;;;;;;;;;11.13;100.00;99263.72;5085514;28;19924;-86
2023/09/12 08:52:16;;;;;;;;;;;;;;;10.71;100.00;99272.03;5078866;28;19916;-83
2023/09/12 08:54:42;;;;;;;;;;;;;;;10.75;100.00;99264.78;5073325;28;20373;-85
2023/09/12 08:57:07;;;;;;;;;;;;;;;11.17;100.00;99274.06;5074738;28;19924;-85
2023/09/12 08:59:33;;;;;;;;;;;;;;;11.43;100.00;99270.00;5074566;28;19923;-86
2023/09/12 09:01:59;;;;;;;;;;;;;;;11.08;100.00;99269.25;5074743;28;20257;-85
2023/09/12 09:04:28;;;;;;;;;;;;;;;10.75;100.00;99277.19;5074522;28;19920;-90
2023/09/12 09:06:54;;;;;;;;;;;;;;;11.00;100.00;99271.47;5073633;28;20256;-84
2023/09/12 09:09:20;;;;;;;;;;;;;;;11.30;100.00;99274.25;5072419;28;20442;-84
2023/09/12 09:11:45;;;;;;;;;;;;;;;10.97;100.00;99279.56;5074414;28;19925;-86
2023/09/12 09:14:11;;;;;;;;;;;;;;;10.63;100.00;99282.16;5073261;28;20020;-85
2023/09/12 09:16:37;;;;;;;;;;;;;;;10.50;100.00;99279.28;5074364;28;19917;-85
2023/09/12 09:19:05;;;;;;;;;;;;;;;10.39;100.00;99278.09;5073007;28;19927;-86
2023/09/12 09:21:31;;;;;;;;;;;;;;;10.67;100.00;99283.75;5074359;28;19975;-86
2023/09/12 09:24:07;;;;;;;;;;;;;;;11.08;100.00;99280.69;5072939;28;20332;-85
2023/09/12 09:26:41;;;;;;;;;;;;;;;10.96;100.00;99270.78;5072817;28;20391;-86
2023/09/12 09:29:08;;;;;;;;;;;;;;;10.44;100.00;99261.06;5067794;28;20416;-82
2023/09/12 09:31:34;;;;;;;;;;;;;;;10.31;100.00;99257.28;5064470;28;19924;-83
2023/09/12 09:34:01;;;;;;;;;;;;;;;10.17;100.00;99253.53;5068705;28;19924;-86
2023/09/12 09:36:27;;;;;;;;;;;;;;;10.15;100.00;99259.84;5069436;28;19931;-85
2023/09/12 09:38:52;;;;;;;;;;;;;;;10.17;100.00;99250.03;5065143;28;19920;-82
2023/09/12 09:41:21;;;;;;;;;;;;;;;10.20;100.00;99252.53;5084166;28;19920;-84
2023/09/12 09:43:49;;;;;;;;;;;;;;;10.65;100.00;99256.44;5078501;28;19920;-85
2023/09/12 09:46:17;;;;;;;;;;;;;;;11.00;100.00;99259.06;5071643;28;19957;-86
2023/09/12 09:48:50;;;;;;;;;;;;;;;10.86;100.00;99262.41;5091816;28;20003;-84
2023/09/12 09:51:15;;;;;;;;;;;;;;;10.45;100.00;99264.56;5081337;28;20019;-83
2023/09/12 09:53:42;;;;;;;;;;;;;;;10.28;100.00;99260.94;5087568;28;20429;-83
2023/09/12 09:56:14;;;;;;;;;;;;;;;10.31;100.00;99263.44;5091101;28;20496;-88
2023/09/12 09:58:56;;;;;;;;;;;;;;;10.84;100.00;99266.09;5080730;28;19920;-86
2023/09/12 10:01:31;;;;;;;;;;;;;;;11.16;100.00;99263.53;5092980;28;19916;-83
2023/09/12 10:04:00;;;;;;;;;;;;;;;10.65;100.00;99258.25;5067611;28;19928;-82
2023/09/12 10:06:37;;;;;;;;;;;;;;;10.52;100.00;99263.31;5091491;28;19920;-94
2023/09/12 10:09:06;;;;;;;;;;;;;;;10.90;100.00;99261.34;5084944;28;19927;-84
2023/09/12 10:11:33;;;;;;;;;;;;;;;11.26;100.00;99262.09;5088923;28;19920;-84
2023/09/12 10:14:01;;;;;;;;;;;;;;;10.73;100.00;99259.56;5091619;28;19928;-87
2023/09/12 10:16:33;;;;;;;;;;;;;;;11.01;100.00;99252.81;5090585;28;19928;-86
2023/09/12 10:19:04;;;;;;;;;;;;;;;11.28;100.00;99254.94;5083708;28;19952;-86
2023/09/12 10:21:33;;;;;;;;;;;;;;;10.95;100.00;99258.44;5073284;28;20375;-83
2023/09/12 10:23:59;;;;;;;;;;;;;;;10.54;100.00;99253.50;5089789;28;20052;-83
2023/09/12 10:26:24;;;;;;;;;;;;;;;10.41;100.00;99247.13;5093243;28;20430;-86
2023/09/12 10:28:51;;;;;;;;;;;;;;;10.32;100.00;99240.44;5091214;28;20367;-83
2023/09/12 10:31:16;;;;;;;;;;;;;;;10.24;100.00;99246.13;5090943;28;19920;-86
2023/09/12 10:33:44;;;;;;;;;;;;;;;10.25;100.00;99241.72;5088324;28;20509;-92
2023/09/12 10:36:11;;;;;;;;;;;;;;;10.39;100.00;99251.63;5091138;28;19928;-86
2023/09/12 10:38:40;;;;;;;;;;;;;;;10.91;100.00;99240.97;5083373;28;19952;-88
2023/09/12 10:41:06;;;;;;;;;;;;;;;17.69;100.00;99242.25;5089179;28;20011;-87
2023/09/12 10:43:33;;;;;;;;;;;;;;;12.20;100.00;99227.69;5088104;28;19928;-86
2023/09/12 10:46:00;;;;;;;;;;;;;;;11.61;100.00;99228.31;5091375;28;19916;-86
2023/09/12 10:48:25;;;;;;;;;;;;;;;11.60;100.00;99236.41;5092941;28;20414;-86
2023/09/12 10:50:51;;;;;;;;;;;;;;;11.04;100.00;99233.22;5094924;28;19952;-84
2023/09/12 10:53:17;;;;;;;;;;;;;;;10.74;100.00;99228.63;5069190;28;20006;-82
2023/09/12 10:55:57;;;;;;;;;;;;;;;10.57;100.00;99232.16;5088465;28;20003;-89
2023/09/12 10:58:23;;;;;;;;;;;;;;;10.43;100.00;99232.00;5088603;28;19930;-83
2023/09/12 11:01:12;;;;;;;;;;;;;;;10.35;100.00;99229.75;5087665;28;20290;-85
2023/09/12 11:03:38;;;;;;;;;;;;;;;10.81;100.00;99231.81;5085639;28;19956;-86
2023/09/12 11:06:04;;;;;;;;;;;;;;;11.19;100.00;99226.25;5087394;28;19963;-87
2023/09/12 11:08:35;;;;;;;;;;;;;;;11.13;100.00;99234.53;5091794;28;19924;-87
2023/09/12 11:11:19;;;;;;;;;;;;;;;10.68;100.00;99224.50;5086117;28;19974;-85
2023/09/12 11:13:45;;;;;;;;;;;;;;;11.16;100.00;99224.63;5086024;28;19978;-87
2023/09/12 11:16:12;;;;;;;;;;;;;;;11.40;100.00;99230.38;5085637;28;19993;-93
2023/09/12 11:18:55;;;;;;;;;;;;;;;11.06;100.00;99228.72;5092303;28;19916;-85
2023/09/12 11:21:31;;;;;;;;;;;;;;;10.72;100.00;99222.53;5074782;28;19920;-87
2023/09/12 11:23:57;;;;;;;;;;;;;;;11.10;100.00;99222.28;5075233;28;19942;-87
2023/09/12 11:26:23;;;;;;;;;;;;;;;11.40;100.00;99226.88;5093417;28;20002;-86
2023/09/12 11:28:48;;;;;;;;;;;;;;;11.13;100.00;99224.78;5089422;28;19924;-85
2023/09/12 11:31:24;;;;;;;;;;;;;;;10.79;100.00;99231.03;5092081;28;19912;-87
2023/09/12 11:33:49;;;;;;;;;;;;;;;11.17;100.00;99221.03;5084419;28;20015;-83
2023/09/12 11:36:15;;;;;;;;;;;;;;;11.45;100.00;99231.00;5073211;28;20031;-87
2023/09/12 11:38:40;;;;;;;;;;;;;;;11.09;100.00;99224.09;5083116;28;19920;-88
2023/09/12 11:41:05;;;;;;;;;;;;;;;10.98;100.00;99220.31;5088158;28;19931;-86
2023/09/12 11:43:32;;;;;;;;;;;;;;;11.31;100.00;99225.56;5091184;28;19916;-84
2023/09/12 11:45:57;;;;;;;;;;;;;;;11.49;100.00;99226.38;5091458;28;19920;-85
2023/09/12 11:48:23;;;;;;;;;;;;;;;11.01;100.00;99222.78;5092197;28;19927;-82
2023/09/12 11:50:55;;;;;;;;;;;;;;;10.80;100.00;99222.13;5091914;28;19916;-85
2023/09/12 11:53:25;;;;;;;;;;;;;;;11.19;100.00;99224.44;5072557;28;20374;-84
2023/09/12 11:55:52;;;;;;;;;;;;;;;11.44;100.00;99223.97;5073697;28;19923;-85
2023/09/12 11:58:18;;;;;;;;;;;;;;;11.19;100.00;99220.97;5092030;28;19924;-84
2023/09/12 12:00:54;;;;;;;;;;;;;;;10.82;100.00;99225.59;5092176;28;19923;-84
2023/09/12 12:03:20;;;;;;;;;;;;;;;10.82;100.00;99220.28;5078792;28;19928;-88
2023/09/12 12:05:46;;;;;;;;;;;;;;;11.17;100.00;99221.03;5073513;28;19920;-86
2023/09/12 12:08:11;;;;;;;;;;;;;;;11.44;100.00;99217.81;5090381;28;19923;-85
2023/09/12 12:10:38;;;;;;;;;;;;;;;11.23;100.00;99212.75;5086981;28;20352;-87
2023/09/12 12:13:04;;;;;;;;;;;;;;;11.21;100.00;99211.09;5068166;28;20099;-86
2023/09/12 12:15:29;;;;;;;;;;;;;;;11.47;100.00;99204.34;5084429;28;20426;-86
2023/09/12 12:17:55;;;;;;;;;;;;;;;11.53;100.00;99205.81;5071010;28;19936;-85
2023/09/12 12:20:21;;;;;;;;;;;;;;;11.35;100.00;99213.03;5068983;28;20331;-86
2023/09/12 12:22:46;;;;;;;;;;;;;;;11.53;100.00;99203.16;5069976;28;19923;-86
2023/09/12 12:25:11;;;;;;;;;;;;;;;11.68;100.00;99209.41;5084373;28;20263;-86
2023/09/12 12:27:38;;;;;;;;;;;;;;;11.19;100.00;99205.03;5071931;28;19930;-87
2023/09/12 12:30:04;;;;;;;;;;;;;;;10.85;100.00;99198.88;5092975;28;19920;-86
2023/09/12 12:32:30;;;;;;;;;;;;;;;10.79;100.00;99188.66;5090333;28;19993;-87
2023/09/12 12:34:55;;;;;;;;;;;;;;;10.69;100.00;99183.81;5071692;28;20367;-83
2023/09/12 12:37:20;;;;;;;;;;;;;;;11.12;100.00;99195.69;5084929;28;19923;-87
2023/09/12 12:39:45;;;;;;;;;;;;;;;11.44;100.00;99192.13;5065825;28;19936;-86
2023/09/12 12:42:11;;;;;;;;;;;;;;;11.15;100.00;99200.84;5086044;28;19924;-86
2023/09/12 12:44:40;;;;;;;;;;;;;;;10.77;100.00;99195.78;5074238;28;20454;-86
2023/09/12 12:47:05;;;;;;;;;;;;;;;10.60;100.00;99183.47;5087898;28;19924;-86
2023/09/12 12:49:35;;;;;;;;;;;;;;;10.56;100.00;99174.78;5090401;28;19924;-83
2023/09/12 12:52:02;;;;;;;;;;;;;;;10.52;100.00;99178.56;5088845;28;19924;-84
2023/09/12 12:54:31;;;;;;;;;;;;;;;10.48;100.00;99177.88;5092228;28;19926;-86
2023/09/12 12:56:56;;;;;;;;;;;;;;;10.63;100.00;99168.25;5094917;28;19924;-86
2023/09/12 12:59:22;;;;;;;;;;;;;;;11.05;100.00;99182.78;5091648;28;19976;-85
2023/09/12 13:01:47;;;;;;;;;;;;;;;11.37;100.00;99174.84;5068194;28;19939;-81
2023/09/12 13:04:12;;;;;;;;;;;;;;;11.03;100.00;99176.72;5079763;28;19925;-84
2023/09/12 13:06:37;;;;;;;;;;;;;;;11.31;100.00;99171.69;5091777;28;19927;-85
2023/09/12 13:09:08;;;;;;;;;;;;;;;11.52;100.00;99173.13;5073176;28;20382;-85
2023/09/12 13:11:37;;;;;;;;;;;;;;;11.25;100.00;99157.81;5084997;28;19920;-87
2023/09/12 13:14:08;;;;;;;;;;;;;;;10.83;100.00;99155.72;5070781;28;19927;-82
2023/09/12 13:16:34;;;;;;;;;;;;;;;11.17;100.00;99154.75;5073834;28;19931;-82
2023/09/12 13:18:59;;;;;;;;;;;;;;;11.52;100.00;99161.66;5074344;28;19928;-84
2023/09/12 13:21:24;;;;;;;;;;;;;;;11.47;100.00;99158.41;5072578;28;19927;-81
2023/09/12 13:23:50;;;;;;;;;;;;;;;11.30;100.00;99159.38;5073458;28;19931;-85
2023/09/12 13:26:15;;;;;;;;;;;;;;;11.53;100.00;99150.09;5075670;28;19939;-87
2023/09/12 13:28:40;;;;;;;;;;;;;;;11.59;100.00;99152.41;5094250;28;19920;-84
2023/09/12 13:31:06;;;;;;;;;;;;;;;11.12;100.00;99150.63;5094218;28;20370;-84
2023/09/12 13:33:32;;;;;;;;;;;;;;;10.97;100.00;99149.69;5094278;28;19916;-84
2023/09/12 13:35:57;;;;;;;;;;;;;;;11.44;100.00;99160.31;5094108;28;19962;-89
2023/09/12 13:38:22;;;;;;;;;;;;;;;11.66;100.00;99158.22;5092958;28;19916;-89
2023/09/12 13:40:48;;;;;;;;;;;;;;;11.11;100.00;99155.09;5093757;28;19920;-88
2023/09/12 13:43:14;;;;;;;;;;;;;;;10.94;100.00;99150.69;5090317;28;19955;-87
2023/09/12 13:45:40;;;;;;;;;;;;;;;10.79;100.00;99146.25;5083984;28;20341;-88
2023/09/12 13:48:08;;;;;;;;;;;;;;;10.67;100.00;99143.31;5088417;28;19924;-85
2023/09/12 13:50:34;;;;;;;;;;;;;;;10.51;100.00;99143.28;5073120;28;20018;-83
2023/09/12 13:53:00;;;;;;;;;;;;;;;10.57;100.00;99139.44;5074334;28;20007;-82
2023/09/12 13:55:26;;;;;;;;;;;;;;;10.59;100.00;99137.53;5074384;28;20509;-82
2023/09/12 13:57:51;;;;;;;;;;;;;;;10.68;100.00;99137.06;5071761;28;20011;-82
2023/09/12 14:00:16;;;;;;;;;;;;;;;11.11;100.00;99147.13;5093177;28;19966;-82
2023/09/12 14:02:42;;;;;;;;;;;;;;;11.37;100.00;99142.16;5093178;28;19920;-82
2023/09/12 14:05:07;;;;;;;;;;;;;;;10.96;100.00;99138.22;5075428;28;20386;-86
2023/09/12 14:07:32;;;;;;;;;;;;;;;10.62;100.00;99129.44;5075513;28;19927;-82
2023/09/12 14:09:58;;;;;;;;;;;;;;;10.64;100.00;99124.94;5092423;28;20355;-82
2023/09/12 14:12:23;;;;;;;;;;;;;;;10.54;100.00;99121.03;5092092;28;19924;-82
2023/09/12 14:14:48;;;;;;;;;;;;;;;10.55;100.00;99117.47;5087856;28;20013;-81
2023/09/12 14:17:14;;;;;;;;;;;;;;;10.51;100.00;99110.63;5092484;28;19923;-81
2023/09/12 14:19:39;;;;;;;;;;;;;;;10.37;100.00;99114.00;5075157;28;19924;-84
2023/09/12 14:22:04;;;;;;;;;;;;;;;10.33;100.00;99113.28;5075064;28;19927;-82
2023/09/12 14:24:29;;;;;;;;;;;;;;;10.52;100.00;99104.38;5092792;28;20009;-80
2023/09/12 14:26:55;;;;;;;;;;;;;;;11.05;100.00;99110.34;5093251;28;19927;-82
2023/09/12 14:29:20;;;;;;;;;;;;;;;11.32;100.00;99099.97;5074993;28;19970;-82
2023/09/12 14:31:50;;;;;;;;;;;;;;;11.07;100.00;99093.44;5093280;28;19923;-87
2023/09/12 14:34:16;;;;;;;;;;;;;;;10.56;100.00;99084.72;5092483;28;19920;-83
2023/09/12 14:36:42;;;;;;;;;;;;;;;10.59;100.00;99070.47;5075830;28;19969;-83
2023/09/12 14:39:07;;;;;;;;;;;;;;;10.49;100.00;99070.13;5073417;28;20703;-83
2023/09/12 14:41:32;;;;;;;;;;;;;;;10.34;100.00;99064.72;5074657;28;19927;-82
2023/09/12 14:43:58;;;;;;;;;;;;;;;10.42;100.00;99064.31;5074741;28;19948;-82
2023/09/12 14:46:23;;;;;;;;;;;;;;;10.36;100.00;99061.97;5070105;28;19927;-82
2023/09/12 14:48:49;;;;;;;;;;;;;;;10.56;100.00;99068.84;5090621;28;20302;-82
2023/09/12 14:51:14;;;;;;;;;;;;;;;11.09;100.00;99074.78;5082553;28;19973;-85
2023/09/12 14:53:44;;;;;;;;;;;;;;;11.27;100.00;99078.19;5073773;28;20287;-84
2023/09/12 14:56:09;;;;;;;;;;;;;;;10.87;100.00;99075.13;5074007;28;20421;-83
2023/09/12 14:58:35;;;;;;;;;;;;;;;20.40;100.00;99087.03;5092713;28;19916;-86
2023/09/12 15:01:00;;;;;;;;;;;;;;;20.10;100.00;99024.44;5069033;28;20051;-89
2023/09/12 15:03:25;;;;;;;;;;;;;;;14.90;100.00;99047.81;5071354;28;19966;-87
2023/09/12 15:05:50;;;;;;;;;;;;;;;13.59;100.00;99073.72;5073919;28;19974;-84
2023/09/12 15:08:15;;;;;;;;;;;;;;;12.48;100.00;99067.50;5072643;28;19982;-89
2023/09/12 15:10:41;;;;;;;;;;;;;;;12.43;100.00;99064.28;5071327;28;19928;-83
2023/09/12 15:13:06;;;;;;;;;;;;;;;12.52;100.00;99063.72;5090747;28;20312;-87
2023/09/12 15:15:32;;;;;;;;;;;;;;;12.00;100.00;99066.91;5091626;28;20263;-83
2023/09/12 15:17:59;;;;;;;;;;;;;;;11.51;100.00;99067.09;5090413;28;20420;-83
2023/09/12 15:20:24;;;;;;;;;;;;;;;11.36;100.00;99072.34;5074365;28;19927;-89
2023/09/12 15:22:50;;;;;;;;;;;;;;;11.14;100.00;99072.72;5092765;28;19920;-91
2023/09/12 15:25:15;;;;;;;;;;;;;;;10.99;100.00;99063.84;5087363;28;19920;-87
2023/09/12 15:27:40;;;;;;;;;;;;;;;11.03;100.00;99064.53;5089479;28;19920;-88
2023/09/12 15:30:06;;;;;;;;;;;;;;;10.94;100.00;99065.88;5079939;28;19920;-85
2023/09/12 15:32:31;;;;;;;;;;;;;;;11.43;100.00;99071.03;5085074;28;20325;-87
2023/09/12 15:34:57;;;;;;;;;;;;;;;11.78;100.00;99076.09;5072933;28;20019;-91
2023/09/12 15:37:22;;;;;;;;;;;;;;;11.35;100.00;99073.28;5073532;28;19969;-82
2023/09/12 15:39:47;;;;;;;;;;;;;;;11.01;100.00;99077.84;5076851;28;20282;-86
2023/09/12 15:42:13;;;;;;;;;;;;;;;10.87;100.00;99075.13;5080447;28;20290;-85
2023/09/12 15:44:38;;;;;;;;;;;;;;;10.78;100.00;99078.28;5092912;28;19916;-86
2023/09/12 15:47:07;;;;;;;;;;;;;;;10.63;100.00;99077.31;5075514;28;19943;-85
2023/09/12 15:49:32;;;;;;;;;;;;;;;10.67;100.00;99078.84;5090147;28;19999;-87
2023/09/12 15:51:57;;;;;;;;;;;;;;;10.64;100.00;99074.59;5092825;28;20513;-87
2023/09/12 15:54:24;;;;;;;;;;;;;;;11.05;100.00;99089.97;5087146;28;20283;-90
2023/09/12 15:56:49;;;;;;;;;;;;;;;11.49;100.00;99084.88;5089297;28;19924;-82
2023/09/12 15:59:14;;;;;;;;;;;;;;;11.47;100.00;99084.97;5091465;28;19927;-89
2023/09/12 16:01:40;;;;;;;;;;;;;;;11.02;100.00;99089.31;5090810;28;19966;-87
2023/09/12 16:04:05;;;;;;;;;;;;;;;10.84;100.00;99080.59;5096033;28;19919;-91
2023/09/12 16:06:30;;;;;;;;;;;;;;;10.67;100.00;99084.16;5094411;28;20402;-91
2023/09/12 16:08:55;;;;;;;;;;;;;;;10.87;100.00;99091.03;5094977;28;19916;-85
2023/09/12 16:11:21;;;;;;;;;;;;;;;11.45;100.00;99101.00;5096128;28;19924;-87
2023/09/12 16:13:48;;;;;;;;;;;;;;;11.64;100.00;99107.91;5077839;28;19923;-89
2023/09/12 16:16:14;;;;;;;;;;;;;;;11.23;100.00;99097.84;5095853;28;19920;-84
2023/09/12 16:18:40;;;;;;;;;;;;;;;11.55;100.00;99103.13;5095374;28;19924;-92
2023/09/12 16:21:05;;;;;;;;;;;;;;;11.79;100.00;99101.69;5077575;28;20006;-86
2023/09/12 16:23:31;;;;;;;;;;;;;;;11.48;100.00;99118.53;5094475;28;19921;-85
2023/09/12 16:25:59;;;;;;;;;;;;;;;11.51;100.00;99128.97;5095640;28;19958;-85
2023/09/12 16:28:25;;;;;;;;;;;;;;;11.82;100.00;99138.69;5084989;28;19926;-83
2023/09/12 16:30:50;;;;;;;;;;;;;;;11.61;100.00;99146.06;5095750;28;19916;-83
2023/09/12 16:33:16;;;;;;;;;;;;;;;11.47;100.00;99153.09;5095358;28;20303;-91
2023/09/12 16:35:41;;;;;;;;;;;;;;;11.85;100.00;99150.06;5095843;28;19916;-83
2023/09/12 16:38:06;;;;;;;;;;;;;;;11.98;100.00;99154.59;5094464;28;20447;-87
2023/09/12 16:40:32;;;;;;;;;;;;;;;11.41;100.00;99149.03;5094052;28;19927;-87
2023/09/12 16:42:57;;;;;;;;;;;;;;;11.57;100.00;99139.25;5095310;28;19920;-82
2023/09/12 16:45:23;;;;;;;;;;;;;;;11.92;100.00;99135.53;5095441;28;19916;-85
2023/09/12 16:47:48;;;;;;;;;;;;;;;11.79;100.00;99132.66;5095500;28;19920;-88
2023/09/12 16:50:14;;;;;;;;;;;;;;;11.51;100.00;99117.50;5077343;28;19979;-87
2023/09/12 16:52:39;;;;;;;;;;;;;;;11.87;100.00;99118.97;5077702;28;19980;-94
2023/09/12 16:55:16;;;;;;;;;;;;;;;11.95;100.00;99122.03;5094217;28;19916;-93
2023/09/12 16:57:41;;;;;;;;;;;;;;;11.42;100.00;99132.13;5077104;28;20369;-90
2023/09/12 17:00:10;;;;;;;;;;;;;;;11.71;100.00;99151.72;5095174;28;19934;-87
2023/09/12 17:02:37;;;;;;;;;;;;;;;12.02;100.00;99204.88;5093891;28;19924;-93
2023/09/12 17:05:06;;;;;;;;;;;;;;;11.77;100.00;99230.97;5077163;28;19916;-88
2023/09/12 17:07:31;;;;;;;;;;;;;;;11.88;100.00;99237.47;5077626;28;19998;-91
2023/09/12 17:09:57;;;;;;;;;;;;;;;12.26;100.00;99242.41;5093581;28;20449;-90
2023/09/12 17:12:24;;;;;;;;;;;;;;;12.24;100.00;99244.28;5094451;28;19916;-85
2023/09/12 17:14:50;;;;;;;;;;;;;;;11.95;100.00;99252.13;5076231;28;19920;-89
2023/09/12 17:17:15;;;;;;;;;;;;;;;12.29;100.00;99252.88;5095173;28;19924;-90
2023/09/12 17:19:40;;;;;;;;;;;;;;;12.02;100.00;99240.22;5076592;28;19920;-91
2023/09/12 17:22:05;;;;;;;;;;;;;;;11.78;100.00;99242.47;5094711;28;19938;-90
2023/09/12 17:24:31;;;;;;;;;;;;;;;12.07;100.00;99232.84;5075301;28;19943;-83
2023/09/12 17:26:56;;;;;;;;;;;;;;;12.10;100.00;99237.97;5094635;28;19923;-90
2023/09/12 17:29:22;;;;;;;;;;;;;;;11.64;100.00;99216.69;5094157;28;19916;-84
2023/09/12 17:31:48;;;;;;;;;;;;;;;12.00;100.00;99207.63;5076297;28;19917;-83
2023/09/12 17:34:14;;;;;;;;;;;;;;;12.22;100.00;99204.56;5094290;28;20034;-85
2023/09/12 17:36:39;;;;;;;;;;;;;;;11.66;100.00;99193.56;5076081;28;19924;-89
2023/09/12 17:39:05;;;;;;;;;;;;;;;11.32;100.00;99187.50;5092971;28;19916;-86
2023/09/12 17:41:30;;;;;;;;;;;;;;;11.16;100.00;99199.91;5094734;28;20012;-90
2023/09/12 17:43:56;;;;;;;;;;;;;;;11.11;100.00;99207.25;5094000;28;19916;-89
2023/09/12 17:46:22;;;;;;;;;;;;;;;11.11;100.00;99220.53;5075901;28;20291;-86
2023/09/12 17:48:47;;;;;;;;;;;;;;;10.96;100.00;99231.00;5092198;28;19922;-87
2023/09/12 17:51:12;;;;;;;;;;;;;;;10.95;100.00;99231.94;5094067;28;19971;-83
2023/09/12 17:53:37;;;;;;;;;;;;;;;10.93;100.00;99239.13;5074598;28;19942;-88
2023/09/12 17:56:03;;;;;;;;;;;;;;;11.02;100.00;99248.38;5075730;28;19920;-83
2023/09/12 17:58:28;;;;;;;;;;;;;;;11.01;100.00;99247.53;5092040;28;19920;-88
2023/09/12 18:00:55;;;;;;;;;;;;;;;10.83;100.00;99252.00;5093631;28;20486;-83
2023/09/12 18:03:20;;;;;;;;;;;;;;;10.72;100.00;99255.22;5075639;28;19920;-88
2023/09/12 18:05:46;;;;;;;;;;;;;;;10.69;100.00;99271.25;5075428;28;20287;-91
2023/09/12 18:08:11;;;;;;;;;;;;;;;10.69;100.00;99279.22;5092766;28;20041;-86
2023/09/12 18:10:36;;;;;;;;;;;;;;;11.25;100.00;99281.63;5093763;28;20041;-89
2023/09/12 18:13:01;;;;;;;;;;;;;;;10.78;100.00;99279.66;5093707;28;19923;-85
2023/09/12 18:15:27;;;;;;;;;;;;;;;10.66;100.00;99279.38;5093333;28;19942;-85
2023/09/12 18:17:52;;;;;;;;;;;;;;;10.64;100.00;99270.66;5075581;28;19920;-87
2023/09/12 18:20:17;;;;;;;;;;;;;;;10.56;100.00;99278.09;5075167;28;20435;-89
2023/09/12 18:22:43;;;;;;;;;;;;;;;10.53;100.00;99281.78;5093471;28;20371;-82
2023/09/12 18:25:09;;;;;;;;;;;;;;;10.56;100.00;99290.50;5091296;28;20282;-87
2023/09/12 18:27:34;;;;;;;;;;;;;;;10.50;100.00;99289.88;5075107;28;19916;-83
2023/09/12 18:29:59;;;;;;;;;;;;;;;10.53;100.00;99299.47;5093275;28;20413;-83
2023/09/12 18:32:25;;;;;;;;;;;;;;;10.44;100.00;99297.28;5093233;28;19919;-83
2023/09/12 18:34:50;;;;;;;;;;;;;;;10.41;100.00;99311.53;5093422;28;19955;-88
2023/09/12 18:37:15;;;;;;;;;;;;;;;10.39;100.00;99310.75;5074994;28;19946;-87
2023/09/12 18:39:42;;;;;;;;;;;;;;;10.30;100.00;99312.03;5089772;28;19921;-86
2023/09/12 18:42:08;;;;;;;;;;;;;;;10.09;100.00;99313.09;5092984;28;19916;-85
2023/09/12 18:44:38;;;;;;;;;;;;;;;10.10;100.00;99320.97;5093029;28;20424;-93
2023/09/12 18:47:04;;;;;;;;;;;;;;;10.05;100.00;99325.63;5082207;28;20388;-82
2023/09/12 18:49:29;;;;;;;;;;;;;;;10.02;100.00;99319.59;5092847;28;20041;-83
2023/09/12 18:51:54;;;;;;;;;;;;;;;9.98;100.00;99325.03;5092967;28;19920;-83
2023/09/12 18:54:22;;;;;;;;;;;;;;;9.83;100.00;99320.50;5073385;28;19956;-85
2023/09/12 18:56:48;;;;;;;;;;;;;;;9.77;100.00;99326.06;5092766;28;19932;-82
2023/09/12 18:59:14;;;;;;;;;;;;;;;9.61;100.00;99326.75;5092882;28;19916;-92
2023/09/12 19:01:40;;;;;;;;;;;;;;;9.61;100.00;99317.97;5093737;28;20367;-85
2023/09/12 19:04:25;;;;;;;;;;;;;;;9.55;100.00;99319.09;5094021;28;20282;-95
2023/09/12 19:06:51;;;;;;;;;;;;;;;9.51;100.00;99309.63;5077776;28;19912;-89
2023/09/12 19:09:17;;;;;;;;;;;;;;;9.41;100.00;99313.59;5091697;28;19915;-87
2023/09/12 19:11:42;;;;;;;;;;;;;;;9.21;100.00;99315.34;5092452;28;20019;-86
2023/09/12 19:14:07;;;;;;;;;;;;;;;9.20;100.00;99311.00;5092613;28;19916;-86
2023/09/12 19:16:33;;;;;;;;;;;;;;;9.01;100.00;99325.94;5092633;28;19947;-85
2023/09/12 19:19:07;;;;;;;;;;;;;;;9.00;100.00;99326.88;5093039;28;19916;-93
2023/09/12 19:21:35;;;;;;;;;;;;;;;8.98;100.00;99331.38;5083263;28;19916;-89
2023/09/12 19:24:00;;;;;;;;;;;;;;;8.97;100.00;99345.53;5091214;28;19920;-85
2023/09/12 19:26:25;;;;;;;;;;;;;;;8.95;100.00;99352.63;5092292;28;19916;-88
2023/09/12 19:28:51;;;;;;;;;;;;;;;8.89;100.00;99353.78;5092245;28;19923;-83
2023/09/12 19:31:16;;;;;;;;;;;;;;;8.85;100.00;99357.47;5092307;28;20006;-89
2023/09/12 19:33:41;;;;;;;;;;;;;;;8.90;100.00;99359.00;5092178;28;19917;-87
2023/09/12 19:36:06;;;;;;;;;;;;;;;9.02;100.00;99349.66;5092186;28;19966;-87
2023/09/12 19:38:32;;;;;;;;;;;;;;;9.10;100.00;99351.97;5090947;28;19917;-86
2023/09/12 19:41:00;;;;;;;;;;;;;;;9.19;100.00;99356.00;5092116;28;19931;-88
2023/09/12 19:43:25;;;;;;;;;;;;;;;9.27;100.00;99354.75;5092208;28;19959;-88
2023/09/12 19:45:51;;;;;;;;;;;;;;;9.29;100.00;99362.59;5074032;28;19971;-82
2023/09/12 19:48:16;;;;;;;;;;;;;;;9.37;100.00;99367.56;5072238;28;19916;-88
2023/09/12 19:50:45;;;;;;;;;;;;;;;9.38;100.00;99375.44;5073874;28;20339;-89
2023/09/12 19:53:15;;;;;;;;;;;;;;;9.50;100.00;99384.59;5090902;28;20325;-86
2023/09/12 19:55:41;;;;;;;;;;;;;;;9.53;100.00;99389.75;5091187;28;19916;-87
2023/09/12 19:58:06;;;;;;;;;;;;;;;9.52;100.00;99390.66;5092122;28;20057;-88
2023/09/12 20:00:31;;;;;;;;;;;;;;;9.58;100.00;99398.31;5088767;28;19930;-83
2023/09/12 20:02:57;;;;;;;;;;;;;;;9.57;100.00;99401.91;5081517;28;19923;-85
2023/09/12 20:05:25;;;;;;;;;;;;;;;9.63;100.00;99404.25;5092014;28;19927;-86
2023/09/12 20:07:50;;;;;;;;;;;;;;;9.73;100.00;99414.44;5080857;28;20387;-85
2023/09/12 20:10:20;;;;;;;;;;;;;;;9.74;100.00;99411.72;5072467;28;19969;-87
2023/09/12 20:12:45;;;;;;;;;;;;;;;9.77;100.00;99410.72;5073660;28;20381;-86
2023/09/12 20:15:11;;;;;;;;;;;;;;;9.77;100.00;99416.03;5073741;28;19920;-87